Time;durP1;ratioP1;P1;durP2;ratioP2;P2;SDS_P1;SDS_P2;PMS_P1;PMS_P2;Temp;Humidity;BMP_temperature;BMP_pressure;BME280_temperature;BME280_humidity;BME280_pressure;Samples;Min_cycle;Max_cycle;Signal;HPM_P1;HPM_P2
2023/09/04 00:02:01;;;;;;;6.00;2.80;;;;;;;;;;5028778;28;20619;-57
2023/09/04 00:04:29;;;;;;;2.87;2.07;;;;;;;;;;5030372;28;20859;-57
2023/09/04 00:06:56;;;;;;;4.87;2.93;;;;;;;;;;5030671;28;20950;-58
2023/09/04 00:09:23;;;;;;;2.90;2.10;;;;;;;;;;5031375;28;20525;-57
2023/09/04 00:11:51;;;;;;;4.60;2.67;;;;;;;;;;5031698;28;20542;-56
2023/09/04 00:14:18;;;;;;;3.53;2.33;;;;;;;;;;5031969;28;20504;-58
2023/09/04 00:16:47;;;;;;;4.67;3.10;;;;;;;;;;5031937;28;20485;-57
2023/09/04 00:19:14;;;;;;;4.23;2.70;;;;;;;;;;5031014;28;20517;-58
2023/09/04 00:21:41;;;;;;;4.70;2.80;;;;;;;;;;5029970;28;20536;-58
2023/09/04 00:24:09;;;;;;;6.40;3.07;;;;;;;;;;5029941;28;20521;-58
2023/09/04 00:26:36;;;;;;;4.13;2.60;;;;;;;;;;5029530;28;20525;-59
2023/09/04 00:29:04;;;;;;;9.00;3.10;;;;;;;;;;5030074;28;20544;-58
2023/09/04 00:31:31;;;;;;;3.83;2.40;;;;;;;;;;5029425;28;20888;-58
2023/09/04 00:34:00;;;;;;;3.90;2.43;;;;;;;;;;5031028;28;20530;-57
2023/09/04 00:36:27;;;;;;;3.67;2.50;;;;;;;;;;5031393;28;20442;-56
2023/09/04 00:38:54;;;;;;;4.70;2.30;;;;;;;;;;5031084;28;20508;-55
2023/09/04 00:41:21;;;;;;;3.40;2.47;;;;;;;;;;5031354;28;20898;-57
2023/09/04 00:43:49;;;;;;;3.90;2.30;;;;;;;;;;5031042;28;20524;-58
2023/09/04 00:46:16;;;;;;;3.17;2.27;;;;;;;;;;5031298;28;20511;-57
2023/09/04 00:48:44;;;;;;;3.33;2.50;;;;;;;;;;5031212;28;20807;-56
2023/09/04 00:51:13;;;;;;;4.60;2.90;;;;;;;;;;5031323;28;20465;-58
2023/09/04 00:53:41;;;;;;;4.53;2.83;;;;;;;;;;5030939;28;20480;-57
2023/09/04 00:56:09;;;;;;;4.07;3.40;;;;;;;;;;5031172;28;20442;-57
2023/09/04 00:58:36;;;;;;;3.30;2.30;;;;;;;;;;5030959;28;20820;-56
2023/09/04 01:01:04;;;;;;;3.40;2.80;;;;;;;;;;5030492;28;20950;-57
2023/09/04 01:03:31;;;;;;;6.90;2.50;;;;;;;;;;5030458;28;20535;-59
2023/09/04 01:05:58;;;;;;;5.60;2.60;;;;;;;;;;5030982;28;20469;-57
2023/09/04 01:08:27;;;;;;;3.37;2.20;;;;;;;;;;5029629;28;20470;-57
2023/09/04 01:10:58;;;;;;;5.83;2.20;;;;;;;;;;5029367;28;20498;-58
2023/09/04 01:13:27;;;;;;;2.87;2.17;;;;;;;;;;5029260;28;20546;-58
2023/09/04 01:15:54;;;;;;;3.97;3.00;;;;;;;;;;5028415;28;20876;-58
2023/09/04 01:18:22;;;;;;;3.93;2.70;;;;;;;;;;5029524;28;20446;-58
2023/09/04 01:21:02;;;;;;;5.30;2.70;;;;;;;;;;5030206;28;20525;-57
2023/09/04 01:23:29;;;;;;;3.50;2.57;;;;;;;;;;5029468;28;20976;-56
2023/09/04 01:26:00;;;;;;;3.30;2.63;;;;;;;;;;5030480;28;20473;-57
2023/09/04 01:28:31;;;;;;;5.50;2.33;;;;;;;;;;5030725;28;20807;-57
2023/09/04 01:31:02;;;;;;;6.30;2.73;;;;;;;;;;5030794;28;20492;-57
2023/09/04 01:33:31;;;;;;;5.70;3.00;;;;;;;;;;5029366;28;20464;-58
2023/09/04 01:36:00;;;;;;;7.80;3.03;;;;;;;;;;5028904;28;20430;-58
2023/09/04 01:38:29;;;;;;;4.47;2.50;;;;;;;;;;5028968;28;20508;-57
2023/09/04 01:40:56;;;;;;;4.60;2.57;;;;;;;;;;5028958;28;20529;-57
2023/09/04 01:43:23;;;;;;;5.07;2.40;;;;;;;;;;5028988;28;20509;-57
2023/09/04 01:45:50;;;;;;;4.60;3.80;;;;;;;;;;5028865;28;20541;-57
2023/09/04 01:48:18;;;;;;;4.07;2.60;;;;;;;;;;5029568;28;20856;-56
2023/09/04 01:50:45;;;;;;;3.80;3.03;;;;;;;;;;5029965;28;20450;-59
2023/09/04 01:53:12;;;;;;;4.07;2.87;;;;;;;;;;5030211;28;20501;-57
2023/09/04 01:55:41;;;;;;;3.97;2.80;;;;;;;;;;5030306;28;20438;-58
2023/09/04 01:58:08;;;;;;;4.70;2.47;;;;;;;;;;5034461;28;20434;-56
2023/09/04 02:00:36;;;;;;;4.13;2.70;;;;;;;;;;5034077;28;20446;-58
2023/09/04 02:03:03;;;;;;;3.67;2.80;;;;;;;;;;5032793;28;20484;-58
2023/09/04 02:05:30;;;;;;;2.70;2.13;;;;;;;;;;5033741;28;20838;-56
2023/09/04 02:07:57;;;;;;;2.80;2.30;;;;;;;;;;5033749;28;20474;-57
2023/09/04 02:10:26;;;;;;;2.80;2.13;;;;;;;;;;5034267;28;20477;-56
2023/09/04 02:12:56;;;;;;;3.40;2.20;;;;;;;;;;5033759;28;20465;-57
2023/09/04 02:15:23;;;;;;;2.73;2.27;;;;;;;;;;5037682;28;20886;-56
2023/09/04 02:17:51;;;;;;;3.80;2.37;;;;;;;;;;5053331;28;20962;-56
2023/09/04 02:20:18;;;;;;;4.33;2.27;;;;;;;;;;5053583;28;20441;-58
2023/09/04 02:22:46;;;;;;;4.17;2.50;;;;;;;;;;5049355;28;20480;-56
2023/09/04 02:25:13;;;;;;;4.10;2.80;;;;;;;;;;5032307;28;20500;-58
2023/09/04 02:27:40;;;;;;;4.77;2.73;;;;;;;;;;5032428;28;20516;-57
2023/09/04 02:30:09;;;;;;;4.20;2.83;;;;;;;;;;5032162;28;20469;-57
2023/09/04 02:32:36;;;;;;;3.97;2.67;;;;;;;;;;5031305;28;20486;-56
2023/09/04 02:35:04;;;;;;;4.90;2.70;;;;;;;;;;5032066;28;20961;-59
2023/09/04 02:37:31;;;;;;;2.97;2.53;;;;;;;;;;5033906;28;20533;-59
2023/09/04 02:39:58;;;;;;;4.90;2.30;;;;;;;;;;5033520;28;20478;-56
2023/09/04 02:42:26;;;;;;;3.70;2.50;;;;;;;;;;5033423;28;20486;-59
2023/09/04 02:44:53;;;;;;;3.50;2.67;;;;;;;;;;5033241;28;20465;-58
2023/09/04 02:47:21;;;;;;;3.57;2.20;;;;;;;;;;5033368;28;20504;-58
2023/09/04 02:49:49;;;;;;;4.23;2.93;;;;;;;;;;5031790;28;20473;-58
2023/09/04 02:52:16;;;;;;;6.70;3.00;;;;;;;;;;5053399;22;20991;-54
2023/09/04 02:54:44;;;;;;;2.83;2.00;;;;;;;;;;5050701;28;20449;-54
2023/09/04 02:57:11;;;;;;;4.40;2.40;;;;;;;;;;5051432;28;20445;-55
2023/09/04 02:59:38;;;;;;;2.63;2.20;;;;;;;;;;5051206;28;20449;-55
2023/09/04 03:02:06;;;;;;;3.67;2.87;;;;;;;;;;5049805;28;20559;-54
2023/09/04 03:04:34;;;;;;;3.60;2.40;;;;;;;;;;5053014;28;20477;-55
2023/09/04 03:07:01;;;;;;;4.67;2.43;;;;;;;;;;5052408;28;20441;-54
2023/09/04 03:09:31;;;;;;;3.87;2.70;;;;;;;;;;5051845;28;20476;-55
2023/09/04 03:11:59;;;;;;;3.40;2.50;;;;;;;;;;5052571;28;20457;-55
2023/09/04 03:14:26;;;;;;;4.50;2.90;;;;;;;;;;5051336;28;20438;-54
2023/09/04 03:16:54;;;;;;;4.17;2.50;;;;;;;;;;5047302;28;20510;-55
2023/09/04 03:19:21;;;;;;;3.90;2.50;;;;;;;;;;5051213;28;20469;-56
2023/09/04 03:21:50;;;;;;;3.20;2.77;;;;;;;;;;5050491;28;20552;-55
2023/09/04 03:24:20;;;;;;;5.37;3.20;;;;;;;;;;5050740;28;20958;-54
2023/09/04 03:26:47;;;;;;;3.33;2.20;;;;;;;;;;5050035;28;20441;-55
2023/09/04 03:29:14;;;;;;;7.27;3.37;;;;;;;;;;5051371;28;20487;-55
2023/09/04 03:31:41;;;;;;;3.73;2.57;;;;;;;;;;5051220;28;20898;-54
2023/09/04 03:34:09;;;;;;;3.83;2.43;;;;;;;;;;5051850;28;20812;-56
2023/09/04 03:36:36;;;;;;;5.03;3.07;;;;;;;;;;5048877;28;20473;-56
2023/09/04 03:39:06;;;;;;;7.50;3.17;;;;;;;;;;5050180;28;20496;-54
2023/09/04 03:41:33;;;;;;;5.37;3.20;;;;;;;;;;5043439;28;20824;-54
2023/09/04 03:44:01;;;;;;;3.90;2.87;;;;;;;;;;5030598;28;20548;-55
2023/09/04 03:46:28;;;;;;;3.70;2.70;;;;;;;;;;5045995;28;20437;-56
2023/09/04 03:48:56;;;;;;;3.37;2.63;;;;;;;;;;5046035;28;20495;-54
2023/09/04 03:51:23;;;;;;;4.20;2.30;;;;;;;;;;5050323;28;20505;-54
2023/09/04 03:53:50;;;;;;;6.03;2.60;;;;;;;;;;5049952;28;20445;-55
2023/09/04 03:56:19;;;;;;;3.27;2.30;;;;;;;;;;5050065;28;20540;-54
2023/09/04 03:58:46;;;;;;;3.27;2.30;;;;;;;;;;5050252;28;20472;-55
2023/09/04 04:01:14;;;;;;;4.00;2.70;;;;;;;;;;5042708;28;20530;-55
2023/09/04 04:03:41;;;;;;;3.70;2.17;;;;;;;;;;5034601;28;20970;-55
2023/09/04 04:06:15;;;;;;;4.50;2.70;;;;;;;;;;5050568;28;20519;-55
2023/09/04 04:08:42;;;;;;;5.63;2.57;;;;;;;;;;5051421;28;20532;-56
2023/09/04 04:11:10;;;;;;;4.60;2.60;;;;;;;;;;5051355;28;20524;-55
2023/09/04 04:13:38;;;;;;;4.30;2.80;;;;;;;;;;5050868;28;21006;-55
2023/09/04 04:16:06;;;;;;;4.10;2.10;;;;;;;;;;5050752;28;20877;-55
2023/09/04 04:18:33;;;;;;;3.97;2.20;;;;;;;;;;5050734;28;20520;-54
2023/09/04 04:21:00;;;;;;;3.33;2.27;;;;;;;;;;5051227;28;20495;-54
2023/09/04 04:23:28;;;;;;;4.00;2.60;;;;;;;;;;5051170;28;20586;-54
2023/09/04 04:25:55;;;;;;;3.17;2.20;;;;;;;;;;5051393;28;20441;-55
2023/09/04 04:28:22;;;;;;;4.33;2.57;;;;;;;;;;5051355;28;20495;-55
2023/09/04 04:30:51;;;;;;;3.80;2.50;;;;;;;;;;5050830;28;20495;-55
2023/09/04 04:33:19;;;;;;;6.10;2.83;;;;;;;;;;5051032;28;20461;-56
2023/09/04 04:35:46;;;;;;;2.93;2.40;;;;;;;;;;5050585;28;20445;-54
2023/09/04 04:38:13;;;;;;;4.27;2.57;;;;;;;;;;5050971;28;20499;-55
2023/09/04 04:40:41;;;;;;;3.47;2.43;;;;;;;;;;5050932;28;21156;-56
2023/09/04 04:43:08;;;;;;;3.67;2.23;;;;;;;;;;5050992;28;20855;-55
2023/09/04 04:45:35;;;;;;;2.73;2.03;;;;;;;;;;5050017;28;20457;-54
2023/09/04 04:48:04;;;;;;;3.20;2.13;;;;;;;;;;5051150;28;21054;-54
2023/09/04 04:50:31;;;;;;;2.87;1.87;;;;;;;;;;5050424;28;20733;-54
2023/09/04 04:52:59;;;;;;;4.40;2.53;;;;;;;;;;5050701;28;20469;-55
2023/09/04 04:55:26;;;;;;;4.07;2.40;;;;;;;;;;5049550;28;20465;-55
2023/09/04 04:57:54;;;;;;;3.43;2.47;;;;;;;;;;5050259;28;20441;-55
2023/09/04 05:00:21;;;;;;;4.03;2.47;;;;;;;;;;5050263;28;20623;-55
2023/09/04 05:02:49;;;;;;;3.37;2.27;;;;;;;;;;5050338;28;20517;-55
2023/09/04 05:05:18;;;;;;;3.93;2.20;;;;;;;;;;5050028;28;20533;-55
2023/09/04 05:07:45;;;;;;;4.60;2.53;;;;;;;;;;5047499;28;20512;-54
2023/09/04 05:10:13;;;;;;;2.53;2.10;;;;;;;;;;5049757;28;20441;-55
2023/09/04 05:12:40;;;;;;;3.60;2.67;;;;;;;;;;5049757;28;21007;-55
2023/09/04 05:15:07;;;;;;;3.53;2.40;;;;;;;;;;5050285;28;20472;-54
2023/09/04 05:17:35;;;;;;;4.13;2.70;;;;;;;;;;5049719;28;20480;-54
2023/09/04 05:20:03;;;;;;;4.10;2.77;;;;;;;;;;5050083;28;20708;-54
2023/09/04 05:22:33;;;;;;;5.37;3.10;;;;;;;;;;5049951;28;20483;-55
2023/09/04 05:25:00;;;;;;;4.70;3.10;;;;;;;;;;5049935;28;20445;-55
2023/09/04 05:27:28;;;;;;;3.80;2.63;;;;;;;;;;5047275;28;20521;-54
2023/09/04 05:29:55;;;;;;;4.30;3.00;;;;;;;;;;5049379;28;20507;-55
2023/09/04 05:32:22;;;;;;;4.00;3.20;;;;;;;;;;5049450;28;20457;-54
2023/09/04 05:34:53;;;;;;;4.33;3.37;;;;;;;;;;5050208;28;20499;-55
2023/09/04 05:37:20;;;;;;;4.27;3.00;;;;;;;;;;5050395;28;20530;-55
2023/09/04 05:39:49;;;;;;;4.80;2.83;;;;;;;;;;5050018;28;20491;-55
2023/09/04 05:42:16;;;;;;;3.53;2.40;;;;;;;;;;5050238;28;20542;-56
2023/09/04 05:44:43;;;;;;;3.60;2.53;;;;;;;;;;5049221;28;20465;-55
2023/09/04 05:47:10;;;;;;;4.67;2.80;;;;;;;;;;5049106;28;20469;-55
2023/09/04 05:49:38;;;;;;;3.60;2.53;;;;;;;;;;5049573;28;20520;-54
2023/09/04 05:52:05;;;;;;;3.33;2.20;;;;;;;;;;5049520;28;20511;-54
2023/09/04 05:54:33;;;;;;;3.63;2.87;;;;;;;;;;5049785;28;20985;-55
2023/09/04 05:57:01;;;;;;;6.50;4.40;;;;;;;;;;5049788;28;20473;-55
2023/09/04 05:59:28;;;;;;;8.10;6.90;;;;;;;;;;5049930;28;20484;-55
2023/09/04 06:01:56;;;;;;;6.70;4.40;;;;;;;;;;5049638;28;20461;-56
2023/09/04 06:04:23;;;;;;;13.90;10.33;;;;;;;;;;5049901;28;20485;-55
2023/09/04 06:06:50;;;;;;;27.37;18.57;;;;;;;;;;5049804;28;20808;-55
2023/09/04 06:09:17;;;;;;;17.43;12.67;;;;;;;;;;5048438;28;20930;-55
2023/09/04 06:11:45;;;;;;;5.80;4.43;;;;;;;;;;5048371;28;20533;-56
2023/09/04 06:14:13;;;;;;;4.30;2.87;;;;;;;;;;5048898;28;20490;-55
2023/09/04 06:16:40;;;;;;;3.87;3.30;;;;;;;;;;5048421;28;20483;-55
2023/09/04 06:19:08;;;;;;;4.93;2.80;;;;;;;;;;5048250;28;20518;-54
2023/09/04 06:21:35;;;;;;;4.20;3.10;;;;;;;;;;5048117;28;20877;-55
2023/09/04 06:24:03;;;;;;;5.13;3.87;;;;;;;;;;5049528;28;20517;-55
2023/09/04 06:26:30;;;;;;;4.63;4.00;;;;;;;;;;5050029;28;20528;-54
2023/09/04 06:28:57;;;;;;;6.13;4.60;;;;;;;;;;5049769;28;20528;-55
2023/09/04 06:31:26;;;;;;;6.77;4.10;;;;;;;;;;5049533;28;20554;-55
2023/09/04 06:33:55;;;;;;;6.60;3.90;;;;;;;;;;5049444;28;20469;-54
2023/09/04 06:36:22;;;;;;;5.27;3.50;;;;;;;;;;5049552;28;20952;-55
2023/09/04 06:38:49;;;;;;;8.80;3.90;;;;;;;;;;5049826;28;20445;-55
2023/09/04 06:41:17;;;;;;;3.70;3.20;;;;;;;;;;5050135;28;20433;-55
2023/09/04 06:43:44;;;;;;;3.60;2.90;;;;;;;;;;5052551;28;20477;-56
2023/09/04 06:46:12;;;;;;;5.10;2.40;;;;;;;;;;5052321;28;20440;-56
2023/09/04 06:48:40;;;;;;;4.17;2.80;;;;;;;;;;5053323;28;20821;-56
2023/09/04 06:51:08;;;;;;;4.00;2.60;;;;;;;;;;5052942;28;20532;-55
2023/09/04 06:53:35;;;;;;;8.97;2.77;;;;;;;;;;5052582;28;20939;-56
2023/09/04 06:56:02;;;;;;;8.27;5.53;;;;;;;;;;5053337;28;20482;-56
2023/09/04 06:58:29;;;;;;;5.93;4.53;;;;;;;;;;5053116;28;20469;-55
2023/09/04 07:00:57;;;;;;;5.13;3.60;;;;;;;;;;5052874;28;20448;-55
2023/09/04 07:03:24;;;;;;;3.37;2.60;;;;;;;;;;5052739;28;20505;-54
2023/09/04 07:05:53;;;;;;;6.43;3.27;;;;;;;;;;5052930;28;20503;-55
2023/09/04 07:08:20;;;;;;;6.17;3.70;;;;;;;;;;5052907;28;20445;-55
2023/09/04 07:10:48;;;;;;;4.37;3.00;;;;;;;;;;5052032;28;20887;-56
2023/09/04 07:13:16;;;;;;;3.90;3.03;;;;;;;;;;5051305;28;20454;-55
2023/09/04 07:15:43;;;;;;;4.13;2.60;;;;;;;;;;5051155;28;20437;-55
2023/09/04 07:18:10;;;;;;;4.37;2.53;;;;;;;;;;5051378;28;20536;-55
2023/09/04 07:20:37;;;;;;;3.90;2.43;;;;;;;;;;5051064;28;20461;-55
2023/09/04 07:23:06;;;;;;;4.00;2.63;;;;;;;;;;5050744;28;20888;-54
2023/09/04 07:25:34;;;;;;;3.83;2.30;;;;;;;;;;5050869;28;20492;-54
2023/09/04 07:28:01;;;;;;;4.60;2.83;;;;;;;;;;5052518;28;20952;-56
2023/09/04 07:30:28;;;;;;;4.20;3.07;;;;;;;;;;5052600;28;20959;-55
2023/09/04 07:32:56;;;;;;;4.40;3.13;;;;;;;;;;5052306;28;20477;-55
2023/09/04 07:35:23;;;;;;;4.60;3.10;;;;;;;;;;5052343;28;20446;-55
2023/09/04 07:37:50;;;;;;;3.80;2.40;;;;;;;;;;5052175;28;20441;-55
2023/09/04 07:40:19;;;;;;;3.00;2.33;;;;;;;;;;5052336;28;20437;-54
2023/09/04 07:42:46;;;;;;;3.53;2.23;;;;;;;;;;5052090;28;20457;-55
2023/09/04 07:45:15;;;;;;;5.00;2.80;;;;;;;;;;5049506;28;20513;-56
2023/09/04 07:47:42;;;;;;;3.37;2.23;;;;;;;;;;5049059;28;20499;-55
2023/09/04 07:50:11;;;;;;;2.77;2.30;;;;;;;;;;5052240;28;20441;-55
2023/09/04 07:52:38;;;;;;;3.03;2.10;;;;;;;;;;5051716;28;20913;-55
2023/09/04 07:55:07;;;;;;;4.50;2.43;;;;;;;;;;5050142;28;20521;-55
2023/09/04 07:57:35;;;;;;;3.13;2.40;;;;;;;;;;5051533;28;20702;-55
2023/09/04 08:00:02;;;;;;;3.30;1.80;;;;;;;;;;5052284;28;20980;-55
2023/09/04 08:02:30;;;;;;;3.23;2.67;;;;;;;;;;5051467;28;20603;-56
2023/09/04 08:04:57;;;;;;;4.23;2.40;;;;;;;;;;5051881;28;20477;-55
2023/09/04 08:07:24;;;;;;;3.37;2.57;;;;;;;;;;5051702;28;20445;-55
2023/09/04 08:09:52;;;;;;;4.13;2.57;;;;;;;;;;5051159;28;20476;-55
2023/09/04 08:12:19;;;;;;;4.10;2.90;;;;;;;;;;5051464;28;20462;-55
2023/09/04 08:14:48;;;;;;;3.40;2.33;;;;;;;;;;5051350;28;21009;-56
2023/09/04 08:17:15;;;;;;;4.40;2.80;;;;;;;;;;5051634;28;20495;-56
2023/09/04 08:19:42;;;;;;;3.50;2.10;;;;;;;;;;5050964;28;20473;-56
2023/09/04 08:22:09;;;;;;;3.17;2.70;;;;;;;;;;5049792;28;20536;-56
2023/09/04 08:24:36;;;;;;;3.43;2.47;;;;;;;;;;5049804;28;20516;-55
2023/09/04 08:27:04;;;;;;;3.33;2.70;;;;;;;;;;5049979;28;20476;-54
2023/09/04 08:29:31;;;;;;;3.90;3.33;;;;;;;;;;5049473;28;20492;-55
2023/09/04 08:32:00;;;;;;;3.10;2.20;;;;;;;;;;5049301;28;20489;-55
2023/09/04 08:34:27;;;;;;;4.03;2.80;;;;;;;;;;5049666;28;20467;-56
2023/09/04 08:36:54;;;;;;;3.80;2.80;;;;;;;;;;5051404;28;20441;-56
2023/09/04 08:39:21;;;;;;;3.60;2.77;;;;;;;;;;5051286;28;20469;-55
2023/09/04 08:41:49;;;;;;;4.23;2.80;;;;;;;;;;5050808;28;20883;-55
2023/09/04 08:44:17;;;;;;;4.50;2.53;;;;;;;;;;5050336;28;20473;-55
2023/09/04 08:46:47;;;;;;;3.20;2.57;;;;;;;;;;5050217;28;21011;-55
2023/09/04 08:49:17;;;;;;;3.00;2.30;;;;;;;;;;5051050;28;20444;-55
2023/09/04 08:51:44;;;;;;;4.13;2.67;;;;;;;;;;5050657;28;20500;-56
2023/09/04 08:54:12;;;;;;;4.17;2.67;;;;;;;;;;5107864;22;20515;-58
2023/09/04 08:56:40;;;;;;;3.37;2.43;;;;;;;;;;5050521;28;20477;-58
2023/09/04 08:59:07;;;;;;;2.97;2.30;;;;;;;;;;5050646;28;20464;-60
2023/09/04 09:01:37;;;;;;;4.13;2.50;;;;;;;;;;5050988;28;20438;-58
2023/09/04 09:04:05;;;;;;;3.90;2.97;;;;;;;;;;5050925;28;20538;-59
2023/09/04 09:06:34;;;;;;;3.90;2.80;;;;;;;;;;5050680;28;20448;-61
2023/09/04 09:09:02;;;;;;;3.73;2.70;;;;;;;;;;5050299;28;20449;-60
2023/09/04 09:11:30;;;;;;;3.60;2.70;;;;;;;;;;5050515;28;20982;-60
2023/09/04 09:13:57;;;;;;;5.70;3.40;;;;;;;;;;5050987;28;20488;-61
2023/09/04 09:16:24;;;;;;;3.60;2.40;;;;;;;;;;5050523;28;20465;-59
2023/09/04 09:18:54;;;;;;;3.37;2.80;;;;;;;;;;5050673;28;20880;-61
2023/09/04 09:21:22;;;;;;;4.83;2.63;;;;;;;;;;5050933;28;20476;-59
2023/09/04 09:24:07;;;;;;;3.80;2.40;;;;;;;;;;5049186;28;20562;-59
2023/09/04 09:26:34;;;;;;;3.23;2.37;;;;;;;;;;5029508;28;20448;-60
2023/09/04 09:29:03;;;;;;;4.80;2.93;;;;;;;;;;5047731;28;20531;-59
2023/09/04 09:31:31;;;;;;;3.63;3.00;;;;;;;;;;5049662;28;20863;-59
2023/09/04 09:33:59;;;;;;;7.10;2.63;;;;;;;;;;5050098;28;20992;-61
2023/09/04 09:36:26;;;;;;;5.73;2.60;;;;;;;;;;5049703;28;20445;-59
2023/09/04 09:38:56;;;;;;;3.63;2.53;;;;;;;;;;5050257;28;20441;-59
2023/09/04 09:41:23;;;;;;;6.40;3.30;;;;;;;;;;5049832;28;20437;-59
2023/09/04 09:43:51;;;;;;;4.00;2.80;;;;;;;;;;5048395;28;20460;-60
2023/09/04 09:46:18;;;;;;;4.30;3.13;;;;;;;;;;5047553;28;20534;-60
2023/09/04 09:48:46;;;;;;;2.87;2.53;;;;;;;;;;5048620;28;20530;-60
2023/09/04 09:51:13;;;;;;;3.93;2.60;;;;;;;;;;5047469;28;20479;-60
2023/09/04 09:53:44;;;;;;;3.80;2.80;;;;;;;;;;5048366;28;20465;-61
2023/09/04 09:56:13;;;;;;;3.83;3.23;;;;;;;;;;5048765;28;20441;-60
2023/09/04 09:58:42;;;;;;;3.17;2.57;;;;;;;;;;5048716;28;21004;-60
2023/09/04 10:01:09;;;;;;;7.50;3.30;;;;;;;;;;5048483;28;20433;-59
2023/09/04 10:03:38;;;;;;;3.90;2.80;;;;;;;;;;5049965;28;20884;-61
2023/09/04 10:06:05;;;;;;;4.30;2.80;;;;;;;;;;5049899;28;20473;-59
2023/09/04 10:08:34;;;;;;;3.80;2.13;;;;;;;;;;5049512;28;20434;-59
2023/09/04 10:11:03;;;;;;;3.77;2.67;;;;;;;;;;5049293;28;20476;-60
2023/09/04 10:13:35;;;;;;;3.97;3.27;;;;;;;;;;5049409;28;20485;-59
2023/09/04 10:16:03;;;;;;;3.70;2.47;;;;;;;;;;5049232;28;20429;-60
2023/09/04 10:18:31;;;;;;;3.90;3.00;;;;;;;;;;5052328;28;20434;-59
2023/09/04 10:20:59;;;;;;;3.50;2.60;;;;;;;;;;5053528;28;20434;-60
2023/09/04 10:23:29;;;;;;;4.13;3.00;;;;;;;;;;5053422;28;20492;-59
2023/09/04 10:26:01;;;;;;;4.00;2.67;;;;;;;;;;5050539;28;20564;-62
2023/09/04 10:28:30;;;;;;;3.87;2.93;;;;;;;;;;5053500;28;20515;-60
2023/09/04 10:30:59;;;;;;;3.80;2.70;;;;;;;;;;5050806;28;20516;-60
2023/09/04 10:33:27;;;;;;;4.20;3.00;;;;;;;;;;5052912;28;20492;-60
2023/09/04 10:35:55;;;;;;;3.30;2.70;;;;;;;;;;5052875;28;20425;-60
2023/09/04 10:38:23;;;;;;;3.50;2.83;;;;;;;;;;5053268;28;20513;-59
2023/09/04 10:40:50;;;;;;;3.87;2.77;;;;;;;;;;5053483;28;20461;-60
2023/09/04 10:43:17;;;;;;;4.10;2.70;;;;;;;;;;5053003;28;20545;-58
2023/09/04 10:46:04;;;;;;;4.13;3.30;;;;;;;;;;5051444;28;20562;-57
2023/09/04 10:48:43;;;;;;;3.97;3.07;;;;;;;;;;5052100;28;20495;-59
2023/09/04 10:51:28;;;;;;;4.07;3.17;;;;;;;;;;5051365;28;20430;-58
2023/09/04 10:53:55;;;;;;;3.20;2.63;;;;;;;;;;5036740;28;20469;-58
2023/09/04 10:56:23;;;;;;;3.33;3.00;;;;;;;;;;5051433;28;20902;-58
2023/09/04 10:58:59;;;;;;;6.30;3.40;;;;;;;;;;5052549;28;20929;-59
2023/09/04 11:01:34;;;;;;;4.77;3.33;;;;;;;;;;5051028;28;20473;-58
2023/09/04 11:04:07;;;;;;;4.40;2.47;;;;;;;;;;5052734;28;20456;-58
2023/09/04 11:06:35;;;;;;;4.00;2.80;;;;;;;;;;5052928;28;20536;-59
2023/09/04 11:09:03;;;;;;;4.17;2.40;;;;;;;;;;5052505;28;20528;-60
2023/09/04 11:11:31;;;;;;;3.87;2.87;;;;;;;;;;5052996;28;20524;-57
2023/09/04 11:13:59;;;;;;;3.57;2.67;;;;;;;;;;5052733;28;20768;-59
2023/09/04 11:16:27;;;;;;;3.67;2.87;;;;;;;;;;5052626;28;20524;-59
2023/09/04 11:19:09;;;;;;;3.37;2.70;;;;;;;;;;5051772;28;20859;-57
2023/09/04 11:21:37;;;;;;;3.10;2.43;;;;;;;;;;5051658;28;20807;-58
2023/09/04 11:24:05;;;;;;;4.37;3.40;;;;;;;;;;5051545;28;20870;-59
2023/09/04 11:26:33;;;;;;;4.53;2.77;;;;;;;;;;5052116;28;20468;-58
2023/09/04 11:29:01;;;;;;;3.87;3.17;;;;;;;;;;5051319;28;20441;-57
2023/09/04 11:31:29;;;;;;;3.80;2.67;;;;;;;;;;5052864;28;20904;-59
2023/09/04 11:33:57;;;;;;;3.20;2.77;;;;;;;;;;5050943;28;20488;-58
2023/09/04 11:36:26;;;;;;;3.17;2.57;;;;;;;;;;5051490;28;20468;-57
2023/09/04 11:39:05;;;;;;;3.70;2.83;;;;;;;;;;5052077;28;20521;-58
2023/09/04 11:41:33;;;;;;;3.83;2.57;;;;;;;;;;5052075;28;20451;-57
2023/09/04 11:44:00;;;;;;;3.60;2.90;;;;;;;;;;5051913;28;20461;-59
2023/09/04 11:46:28;;;;;;;3.33;2.57;;;;;;;;;;5051198;28;20590;-58
2023/09/04 11:48:55;;;;;;;3.17;2.87;;;;;;;;;;5052156;28;20801;-57
2023/09/04 11:51:23;;;;;;;3.83;3.43;;;;;;;;;;5051338;28;20524;-57
2023/09/04 11:53:51;;;;;;;3.93;2.93;;;;;;;;;;5050467;28;20556;-58
2023/09/04 11:56:18;;;;;;;5.90;2.80;;;;;;;;;;5050296;28;20502;-58
2023/09/04 11:58:46;;;;;;;4.47;2.97;;;;;;;;;;5051013;28;20849;-58
2023/09/04 12:01:13;;;;;;;2.93;2.30;;;;;;;;;;5051095;28;20484;-58
2023/09/04 12:03:40;;;;;;;3.53;2.47;;;;;;;;;;5051583;28;20489;-58
2023/09/04 12:06:07;;;;;;;4.10;3.10;;;;;;;;;;5051447;28;20558;-60
2023/09/04 12:08:35;;;;;;;2.93;2.50;;;;;;;;;;5052027;28;20476;-57
2023/09/04 12:11:03;;;;;;;3.50;2.53;;;;;;;;;;5051262;28;20516;-58
2023/09/04 12:13:31;;;;;;;3.90;3.03;;;;;;;;;;5048002;28;20560;-57
2023/09/04 12:16:06;;;;;;;3.50;2.70;;;;;;;;;;5051858;28;20899;-58
2023/09/04 12:18:36;;;;;;;7.10;2.90;;;;;;;;;;5035130;28;20438;-59
2023/09/04 12:21:07;;;;;;;3.47;2.53;;;;;;;;;;5051087;28;20440;-59
2023/09/04 12:23:39;;;;;;;3.47;2.93;;;;;;;;;;5051368;28;20461;-60
2023/09/04 12:26:10;;;;;;;3.93;2.60;;;;;;;;;;5050666;28;20513;-60
2023/09/04 12:28:37;;;;;;;4.83;3.67;;;;;;;;;;5049044;28;20886;-57
2023/09/04 12:31:07;;;;;;;2.80;2.50;;;;;;;;;;5048421;28;20438;-59
2023/09/04 12:33:37;;;;;;;4.23;2.90;;;;;;;;;;5042709;28;20892;-60
2023/09/04 12:36:08;;;;;;;4.50;2.80;;;;;;;;;;5051253;28;20438;-60
2023/09/04 12:38:35;;;;;;;3.20;2.27;;;;;;;;;;5050275;28;20468;-58
2023/09/04 12:41:03;;;;;;;4.30;2.60;;;;;;;;;;5048764;28;20437;-60
2023/09/04 12:43:31;;;;;;;2.97;2.13;;;;;;;;;;5050965;28;20461;-59
2023/09/04 12:45:59;;;;;;;2.90;1.93;;;;;;;;;;5050438;28;20572;-61
2023/09/04 12:48:26;;;;;;;3.40;2.43;;;;;;;;;;5050861;28;20499;-57
2023/09/04 12:50:53;;;;;;;5.13;2.93;;;;;;;;;;5051271;28;20469;-60
2023/09/04 12:53:20;;;;;;;3.27;2.23;;;;;;;;;;5050695;28;20552;-57
2023/09/04 12:55:48;;;;;;;4.53;2.67;;;;;;;;;;5050812;28;20465;-59
2023/09/04 12:58:16;;;;;;;3.57;2.67;;;;;;;;;;5050809;28;20457;-59
2023/09/04 13:00:45;;;;;;;3.73;2.00;;;;;;;;;;5050987;28;20461;-59
2023/09/04 13:03:12;;;;;;;4.20;2.03;;;;;;;;;;5050997;28;20497;-59
2023/09/04 13:05:40;;;;;;;2.30;1.63;;;;;;;;;;5050599;28;20484;-61
2023/09/04 13:08:07;;;;;;;9.87;2.40;;;;;;;;;;5049594;28;20441;-59
2023/09/04 13:10:35;;;;;;;4.33;2.43;;;;;;;;;;5049709;28;20514;-59
2023/09/04 13:13:02;;;;;;;2.33;1.37;;;;;;;;;;5050671;28;20463;-60
2023/09/04 13:15:29;;;;;;;2.80;1.97;;;;;;;;;;5049968;28;20494;-59
2023/09/04 13:17:58;;;;;;;4.13;2.20;;;;;;;;;;5048572;28;20517;-58
2023/09/04 13:20:25;;;;;;;3.10;2.43;;;;;;;;;;5047945;28;20473;-58
2023/09/04 13:22:53;;;;;;;2.43;1.60;;;;;;;;;;5046928;28;20548;-58
2023/09/04 13:25:20;;;;;;;4.20;2.17;;;;;;;;;;5048807;28;20526;-58
2023/09/04 13:27:47;;;;;;;3.27;2.20;;;;;;;;;;5048825;28;21019;-59
2023/09/04 13:30:15;;;;;;;3.00;2.10;;;;;;;;;;5049040;28;20506;-60
2023/09/04 13:32:42;;;;;;;2.87;2.07;;;;;;;;;;5050170;28;20511;-59
2023/09/04 13:35:11;;;;;;;3.50;2.10;;;;;;;;;;5044573;28;20521;-59
2023/09/04 13:37:38;;;;;;;4.10;1.70;;;;;;;;;;5042453;28;20468;-59
2023/09/04 13:40:06;;;;;;;2.63;1.60;;;;;;;;;;5047676;28;20489;-59
2023/09/04 13:42:33;;;;;;;3.77;1.87;;;;;;;;;;5045638;28;20512;-58
2023/09/04 13:45:01;;;;;;;3.33;2.00;;;;;;;;;;5047882;28;20441;-57
2023/09/04 13:47:28;;;;;;;3.50;2.30;;;;;;;;;;5049637;28;20827;-57
2023/09/04 13:49:56;;;;;;;2.97;1.93;;;;;;;;;;5050010;28;20487;-57
2023/09/04 13:52:25;;;;;;;3.07;1.27;;;;;;;;;;5060070;28;20899;-58
2023/09/04 13:54:55;;;;;;;2.97;1.80;;;;;;;;;;5055374;28;20479;-60
2023/09/04 13:57:22;;;;;;;4.20;1.60;;;;;;;;;;5053756;28;20441;-58
2023/09/04 13:59:49;;;;;;;3.60;1.63;;;;;;;;;;5052728;28;20445;-57
2023/09/04 14:02:16;;;;;;;2.63;1.43;;;;;;;;;;5049438;28;20450;-58
2023/09/04 14:04:44;;;;;;;3.20;1.63;;;;;;;;;;5052211;28;20476;-59
2023/09/04 14:07:11;;;;;;;3.30;1.60;;;;;;;;;;5047508;28;20517;-59
2023/09/04 14:09:40;;;;;;;4.03;1.80;;;;;;;;;;5051102;28;20441;-57
2023/09/04 14:12:07;;;;;;;2.17;1.33;;;;;;;;;;5049922;28;20507;-58
2023/09/04 14:14:34;;;;;;;3.23;1.40;;;;;;;;;;5049239;28;20449;-58
2023/09/04 14:17:02;;;;;;;2.50;1.83;;;;;;;;;;5051958;28;20533;-60
2023/09/04 14:19:29;;;;;;;1.97;1.20;;;;;;;;;;5051647;28;20480;-56
2023/09/04 14:21:56;;;;;;;2.43;1.33;;;;;;;;;;5053403;28;20433;-59
2023/09/04 14:24:23;;;;;;;3.50;1.50;;;;;;;;;;5052771;28;20562;-60
2023/09/04 14:26:52;;;;;;;3.60;1.33;;;;;;;;;;5053155;28;20988;-58
2023/09/04 14:29:19;;;;;;;2.60;1.43;;;;;;;;;;5051700;28;20524;-58
2023/09/04 14:31:47;;;;;;;2.20;1.10;;;;;;;;;;5051955;28;20536;-58
2023/09/04 14:34:14;;;;;;;1.80;0.80;;;;;;;;;;5050433;28;20468;-57
2023/09/04 14:36:41;;;;;;;2.90;1.33;;;;;;;;;;5050111;28;20473;-59
2023/09/04 14:39:09;;;;;;;2.00;1.00;;;;;;;;;;5047132;28;20520;-58
2023/09/04 14:41:36;;;;;;;2.80;1.50;;;;;;;;;;5052922;28;20465;-58
2023/09/04 14:44:05;;;;;;;2.57;1.00;;;;;;;;;;5051557;28;20473;-58
2023/09/04 14:46:34;;;;;;;2.40;1.10;;;;;;;;;;5050803;28;20508;-59
2023/09/04 14:49:02;;;;;;;2.80;1.23;;;;;;;;;;5048269;28;20453;-58